Accueil
METAR-TAF:

METAR-TAF

Aéroports :

Wittering, Angleterre

latitude: 52-37N, longitude: 000-28W, altitude: 84 m

Observation

Le bulletin a été fait il y a 1 heure et 0 minutes, à 20:50 UTC
Vent 9 kt de ouest/nord-ouest
Température 9°C
Humidité 71%
Pression 1021 hPa
Visibilité 10 km ou plus

METAR: EGXT 232050Z AUTO 29009KT 9999 NCD 09/04 Q1021

Heure: 22:50 (21:50 UTC)


TAF: absent

Observations et prévisions météorologiques de plus de 4000 aéroports (messages METAR et TAF).

Les stations disponibles sont représentées par des disques jaunes et rouges sur la carte.

Passer la souris dessus pour voir le nom de la station.

Cliquer dessus pour voir les observations et prévisions météorologiques.

Pour changer de carte: cliquez sur les boutons verts avec une croix noire pour zoomer, sur le bouton vert avec un tiret pour effectuer un zoom arrière, ou sur les flèches vertes pour les cartes adjacentes.


METAR-TAF: